sensor_id;sensor_type;location;lat;lon;timestamp;P1;durP1;ratioP1;P2;durP2;ratioP2
82985;SDS011;72786;53.546;9.910;2024-01-11T00:01:44;28.10;;;9.63;;
82985;SDS011;72786;53.546;9.910;2024-01-11T00:04:15;27.25;;;9.02;;
82985;SDS011;72786;53.546;9.910;2024-01-11T00:06:42;30.10;;;10.52;;
82985;SDS011;72786;53.546;9.910;2024-01-11T00:09:09;29.70;;;10.52;;
82985;SDS011;72786;53.546;9.910;2024-01-11T00:11:36;34.25;;;12.27;;
82985;SDS011;72786;53.546;9.910;2024-01-11T00:14:02;29.20;;;9.90;;
82985;SDS011;72786;53.546;9.910;2024-01-11T00:16:29;32.10;;;10.98;;
82985;SDS011;72786;53.546;9.910;2024-01-11T00:18:55;29.77;;;10.48;;
82985;SDS011;72786;53.546;9.910;2024-01-11T00:21:22;28.23;;;9.68;;
82985;SDS011;72786;53.546;9.910;2024-01-11T00:23:49;28.00;;;9.07;;
82985;SDS011;72786;53.546;9.910;2024-01-11T00:26:15;27.70;;;9.75;;
82985;SDS011;72786;53.546;9.910;2024-01-11T00:28:42;29.48;;;10.50;;
82985;SDS011;72786;53.546;9.910;2024-01-11T00:31:09;31.88;;;11.35;;
82985;SDS011;72786;53.546;9.910;2024-01-11T00:33:35;31.75;;;10.38;;
82985;SDS011;72786;53.546;9.910;2024-01-11T00:36:02;32.22;;;10.20;;
82985;SDS011;72786;53.546;9.910;2024-01-11T00:38:29;28.17;;;9.75;;
82985;SDS011;72786;53.546;9.910;2024-01-11T00:40:56;27.40;;;9.95;;
82985;SDS011;72786;53.546;9.910;2024-01-11T00:43:22;26.73;;;9.57;;
82985;SDS011;72786;53.546;9.910;2024-01-11T00:45:49;35.25;;;10.07;;
82985;SDS011;72786;53.546;9.910;2024-01-11T00:48:15;29.60;;;9.20;;
82985;SDS011;72786;53.546;9.910;2024-01-11T00:50:42;27.42;;;9.57;;
82985;SDS011;72786;53.546;9.910;2024-01-11T00:53:08;25.40;;;9.25;;
82985;SDS011;72786;53.546;9.910;2024-01-11T00:55:35;26.40;;;8.57;;
82985;SDS011;72786;53.546;9.910;2024-01-11T00:58:02;27.38;;;8.73;;
82985;SDS011;72786;53.546;9.910;2024-01-11T01:00:28;29.67;;;10.02;;
82985;SDS011;72786;53.546;9.910;2024-01-11T01:02:54;27.63;;;10.20;;
82985;SDS011;72786;53.546;9.910;2024-01-11T01:05:21;27.33;;;9.10;;
82985;SDS011;72786;53.546;9.910;2024-01-11T01:07:47;29.73;;;9.25;;
82985;SDS011;72786;53.546;9.910;2024-01-11T01:10:14;25.70;;;9.00;;
82985;SDS011;72786;53.546;9.910;2024-01-11T01:12:40;33.10;;;10.75;;
82985;SDS011;72786;53.546;9.910;2024-01-11T01:15:07;29.55;;;9.75;;
82985;SDS011;72786;53.546;9.910;2024-01-11T01:17:33;30.35;;;10.25;;
82985;SDS011;72786;53.546;9.910;2024-01-11T01:20:00;24.83;;;8.50;;
82985;SDS011;72786;53.546;9.910;2024-01-11T01:22:27;29.70;;;10.00;;
82985;SDS011;72786;53.546;9.910;2024-01-11T01:24:53;29.40;;;9.05;;
82985;SDS011;72786;53.546;9.910;2024-01-11T01:27:20;24.95;;;8.70;;
82985;SDS011;72786;53.546;9.910;2024-01-11T01:29:46;25.42;;;9.07;;
82985;SDS011;72786;53.546;9.910;2024-01-11T01:32:12;25.10;;;8.52;;
82985;SDS011;72786;53.546;9.910;2024-01-11T01:34:39;26.08;;;8.45;;
82985;SDS011;72786;53.546;9.910;2024-01-11T01:37:05;23.40;;;8.10;;
82985;SDS011;72786;53.546;9.910;2024-01-11T01:39:32;25.13;;;9.02;;
82985;SDS011;72786;53.546;9.910;2024-01-11T01:41:58;27.73;;;9.48;;
82985;SDS011;72786;53.546;9.910;2024-01-11T01:44:25;27.25;;;8.52;;
82985;SDS011;72786;53.546;9.910;2024-01-11T01:46:51;28.65;;;9.90;;
82985;SDS011;72786;53.546;9.910;2024-01-11T01:49:18;26.30;;;8.85;;
82985;SDS011;72786;53.546;9.910;2024-01-11T01:51:48;26.67;;;9.27;;
82985;SDS011;72786;53.546;9.910;2024-01-11T01:54:16;25.15;;;8.90;;
82985;SDS011;72786;53.546;9.910;2024-01-11T01:56:44;27.65;;;9.30;;
82985;SDS011;72786;53.546;9.910;2024-01-11T01:59:11;29.20;;;8.60;;
82985;SDS011;72786;53.546;9.910;2024-01-11T02:01:39;25.40;;;8.88;;
82985;SDS011;72786;53.546;9.910;2024-01-11T02:04:06;30.73;;;8.93;;
82985;SDS011;72786;53.546;9.910;2024-01-11T02:06:32;31.60;;;9.80;;
82985;SDS011;72786;53.546;9.910;2024-01-11T02:09:01;29.48;;;9.73;;
82985;SDS011;72786;53.546;9.910;2024-01-11T02:11:31;32.42;;;9.98;;
82985;SDS011;72786;53.546;9.910;2024-01-11T02:13:58;32.55;;;9.30;;
82985;SDS011;72786;53.546;9.910;2024-01-11T02:16:25;32.08;;;9.85;;
82985;SDS011;72786;53.546;9.910;2024-01-11T02:18:51;33.72;;;9.63;;
82985;SDS011;72786;53.546;9.910;2024-01-11T02:21:18;31.02;;;10.00;;
82985;SDS011;72786;53.546;9.910;2024-01-11T02:26:30;35.00;;;9.93;;
82985;SDS011;72786;53.546;9.910;2024-01-11T02:28:56;31.67;;;9.98;;
82985;SDS011;72786;53.546;9.910;2024-01-11T02:31:23;30.80;;;10.32;;
82985;SDS011;72786;53.546;9.910;2024-01-11T02:33:53;37.58;;;11.10;;
82985;SDS011;72786;53.546;9.910;2024-01-11T02:36:21;33.03;;;10.00;;
82985;SDS011;72786;53.546;9.910;2024-01-11T02:38:48;32.60;;;9.57;;
82985;SDS011;72786;53.546;9.910;2024-01-11T02:41:16;33.20;;;10.50;;
82985;SDS011;72786;53.546;9.910;2024-01-11T02:43:46;32.03;;;10.95;;
82985;SDS011;72786;53.546;9.910;2024-01-11T02:46:14;35.78;;;11.27;;
82985;SDS011;72786;53.546;9.910;2024-01-11T02:48:41;32.42;;;10.98;;
82985;SDS011;72786;53.546;9.910;2024-01-11T02:51:08;33.95;;;10.77;;
82985;SDS011;72786;53.546;9.910;2024-01-11T02:53:34;32.38;;;10.77;;
82985;SDS011;72786;53.546;9.910;2024-01-11T02:56:01;37.03;;;11.23;;
82985;SDS011;72786;53.546;9.910;2024-01-11T02:58:29;36.00;;;10.75;;
82985;SDS011;72786;53.546;9.910;2024-01-11T03:00:55;33.90;;;11.65;;
82985;SDS011;72786;53.546;9.910;2024-01-11T03:03:22;35.95;;;10.85;;
82985;SDS011;72786;53.546;9.910;2024-01-11T03:05:48;41.00;;;11.65;;
82985;SDS011;72786;53.546;9.910;2024-01-11T03:08:15;35.90;;;11.55;;
82985;SDS011;72786;53.546;9.910;2024-01-11T03:10:41;38.17;;;12.48;;
82985;SDS011;72786;53.546;9.910;2024-01-11T03:13:08;44.53;;;12.35;;
82985;SDS011;72786;53.546;9.910;2024-01-11T03:15:34;38.55;;;12.05;;
82985;SDS011;72786;53.546;9.910;2024-01-11T03:18:00;39.50;;;12.45;;
82985;SDS011;72786;53.546;9.910;2024-01-11T03:20:27;42.17;;;13.52;;
82985;SDS011;72786;53.546;9.910;2024-01-11T03:22:54;39.80;;;13.40;;
82985;SDS011;72786;53.546;9.910;2024-01-11T03:25:20;44.17;;;13.55;;
82985;SDS011;72786;53.546;9.910;2024-01-11T03:27:47;43.25;;;12.70;;
82985;SDS011;72786;53.546;9.910;2024-01-11T03:30:13;40.90;;;12.25;;
82985;SDS011;72786;53.546;9.910;2024-01-11T03:32:40;48.75;;;12.80;;
82985;SDS011;72786;53.546;9.910;2024-01-11T03:35:08;40.30;;;12.63;;
82985;SDS011;72786;53.546;9.910;2024-01-11T03:37:35;43.45;;;11.73;;
82985;SDS011;72786;53.546;9.910;2024-01-11T03:40:02;39.40;;;12.73;;
82985;SDS011;72786;53.546;9.910;2024-01-11T03:42:29;43.45;;;12.25;;
82985;SDS011;72786;53.546;9.910;2024-01-11T03:44:56;39.28;;;12.27;;
82985;SDS011;72786;53.546;9.910;2024-01-11T03:47:22;36.17;;;11.10;;
82985;SDS011;72786;53.546;9.910;2024-01-11T03:49:49;45.00;;;12.60;;
82985;SDS011;72786;53.546;9.910;2024-01-11T03:52:15;44.38;;;12.48;;
82985;SDS011;72786;53.546;9.910;2024-01-11T03:54:42;38.67;;;11.85;;
82985;SDS011;72786;53.546;9.910;2024-01-11T03:57:08;36.65;;;11.07;;
82985;SDS011;72786;53.546;9.910;2024-01-11T03:59:34;41.63;;;12.55;;
82985;SDS011;72786;53.546;9.910;2024-01-11T04:02:01;38.67;;;11.38;;
82985;SDS011;72786;53.546;9.910;2024-01-11T04:04:28;40.80;;;12.38;;
82985;SDS011;72786;53.546;9.910;2024-01-11T04:06:54;39.13;;;12.30;;
82985;SDS011;72786;53.546;9.910;2024-01-11T04:09:21;40.03;;;11.80;;
82985;SDS011;72786;53.546;9.910;2024-01-11T04:11:47;49.95;;;13.95;;
82985;SDS011;72786;53.546;9.910;2024-01-11T04:14:14;42.58;;;12.20;;
82985;SDS011;72786;53.546;9.910;2024-01-11T04:16:40;53.50;;;15.80;;
82985;SDS011;72786;53.546;9.910;2024-01-11T04:19:08;61.10;;;17.50;;
82985;SDS011;72786;53.546;9.910;2024-01-11T04:21:35;59.20;;;18.90;;
82985;SDS011;72786;53.546;9.910;2024-01-11T04:24:04;55.72;;;16.27;;
82985;SDS011;72786;53.546;9.910;2024-01-11T04:26:34;57.75;;;15.82;;
82985;SDS011;72786;53.546;9.910;2024-01-11T04:29:01;60.55;;;17.55;;
82985;SDS011;72786;53.546;9.910;2024-01-11T04:31:27;65.78;;;17.73;;
82985;SDS011;72786;53.546;9.910;2024-01-11T04:33:54;64.45;;;17.67;;
82985;SDS011;72786;53.546;9.910;2024-01-11T04:36:20;63.80;;;18.42;;
82985;SDS011;72786;53.546;9.910;2024-01-11T04:38:47;63.10;;;17.30;;
82985;SDS011;72786;53.546;9.910;2024-01-11T04:41:14;55.95;;;16.15;;
82985;SDS011;72786;53.546;9.910;2024-01-11T04:43:42;55.20;;;16.83;;
82985;SDS011;72786;53.546;9.910;2024-01-11T04:46:16;57.33;;;17.70;;
82985;SDS011;72786;53.546;9.910;2024-01-11T04:48:43;58.67;;;18.70;;
82985;SDS011;72786;53.546;9.910;2024-01-11T04:51:12;63.50;;;17.55;;
82985;SDS011;72786;53.546;9.910;2024-01-11T04:53:40;56.53;;;15.13;;
82985;SDS011;72786;53.546;9.910;2024-01-11T04:56:07;53.45;;;16.98;;
82985;SDS011;72786;53.546;9.910;2024-01-11T04:58:35;55.75;;;15.77;;
82985;SDS011;72786;53.546;9.910;2024-01-11T05:01:05;52.10;;;15.35;;
82985;SDS011;72786;53.546;9.910;2024-01-11T05:03:32;48.67;;;14.63;;
82985;SDS011;72786;53.546;9.910;2024-01-11T05:05:59;44.17;;;14.05;;
82985;SDS011;72786;53.546;9.910;2024-01-11T05:08:26;35.25;;;11.80;;
82985;SDS011;72786;53.546;9.910;2024-01-11T05:10:54;41.35;;;12.77;;
82985;SDS011;72786;53.546;9.910;2024-01-11T05:13:22;40.40;;;12.23;;
82985;SDS011;72786;53.546;9.910;2024-01-11T05:15:48;37.67;;;10.48;;
82985;SDS011;72786;53.546;9.910;2024-01-11T05:18:15;36.47;;;11.43;;
82985;SDS011;72786;53.546;9.910;2024-01-11T05:20:42;28.85;;;10.05;;
82985;SDS011;72786;53.546;9.910;2024-01-11T05:23:08;30.02;;;9.95;;
82985;SDS011;72786;53.546;9.910;2024-01-11T05:25:35;33.40;;;11.02;;
82985;SDS011;72786;53.546;9.910;2024-01-11T05:28:01;33.20;;;9.98;;
82985;SDS011;72786;53.546;9.910;2024-01-11T05:30:28;34.00;;;10.38;;
82985;SDS011;72786;53.546;9.910;2024-01-11T05:32:56;29.15;;;9.98;;
82985;SDS011;72786;53.546;9.910;2024-01-11T05:35:23;33.50;;;11.35;;
82985;SDS011;72786;53.546;9.910;2024-01-11T05:37:50;31.73;;;10.50;;
82985;SDS011;72786;53.546;9.910;2024-01-11T05:40:17;31.10;;;9.70;;
82985;SDS011;72786;53.546;9.910;2024-01-11T05:42:43;29.13;;;10.25;;
82985;SDS011;72786;53.546;9.910;2024-01-11T05:45:09;28.67;;;9.07;;
82985;SDS011;72786;53.546;9.910;2024-01-11T05:47:36;26.23;;;7.63;;
82985;SDS011;72786;53.546;9.910;2024-01-11T05:50:03;26.10;;;7.95;;
82985;SDS011;72786;53.546;9.910;2024-01-11T05:52:31;22.73;;;8.02;;
82985;SDS011;72786;53.546;9.910;2024-01-11T05:54:58;21.17;;;6.00;;
82985;SDS011;72786;53.546;9.910;2024-01-11T05:57:24;20.77;;;7.07;;
82985;SDS011;72786;53.546;9.910;2024-01-11T05:59:50;18.60;;;5.70;;
82985;SDS011;72786;53.546;9.910;2024-01-11T06:02:17;19.98;;;5.93;;
82985;SDS011;72786;53.546;9.910;2024-01-11T06:04:43;17.30;;;5.13;;
82985;SDS011;72786;53.546;9.910;2024-01-11T06:07:13;24.17;;;5.22;;
82985;SDS011;72786;53.546;9.910;2024-01-11T06:09:40;18.08;;;5.63;;
82985;SDS011;72786;53.546;9.910;2024-01-11T06:12:07;14.30;;;4.57;;
82985;SDS011;72786;53.546;9.910;2024-01-11T06:14:33;15.77;;;4.25;;
82985;SDS011;72786;53.546;9.910;2024-01-11T06:17:00;15.50;;;4.93;;
82985;SDS011;72786;53.546;9.910;2024-01-11T06:19:26;15.13;;;4.30;;
82985;SDS011;72786;53.546;9.910;2024-01-11T06:21:53;15.15;;;3.58;;
82985;SDS011;72786;53.546;9.910;2024-01-11T06:24:19;11.43;;;3.53;;
82985;SDS011;72786;53.546;9.910;2024-01-11T06:26:45;11.75;;;3.65;;
82985;SDS011;72786;53.546;9.910;2024-01-11T06:29:12;14.10;;;4.13;;
82985;SDS011;72786;53.546;9.910;2024-01-11T06:31:38;11.43;;;3.45;;
82985;SDS011;72786;53.546;9.910;2024-01-11T06:34:05;15.98;;;4.05;;
82985;SDS011;72786;53.546;9.910;2024-01-11T06:36:31;15.57;;;3.53;;
82985;SDS011;72786;53.546;9.910;2024-01-11T06:38:58;13.93;;;3.83;;
82985;SDS011;72786;53.546;9.910;2024-01-11T06:41:24;16.23;;;4.72;;
82985;SDS011;72786;53.546;9.910;2024-01-11T06:43:51;11.88;;;3.67;;
82985;SDS011;72786;53.546;9.910;2024-01-11T06:46:20;13.90;;;4.40;;
82985;SDS011;72786;53.546;9.910;2024-01-11T06:48:48;17.63;;;4.97;;
82985;SDS011;72786;53.546;9.910;2024-01-11T06:51:16;17.88;;;5.20;;
82985;SDS011;72786;53.546;9.910;2024-01-11T06:53:46;14.98;;;4.55;;
82985;SDS011;72786;53.546;9.910;2024-01-11T06:56:16;18.77;;;5.20;;
82985;SDS011;72786;53.546;9.910;2024-01-11T06:58:44;23.35;;;5.38;;
82985;SDS011;72786;53.546;9.910;2024-01-11T07:01:12;28.30;;;5.85;;
82985;SDS011;72786;53.546;9.910;2024-01-11T07:03:39;22.40;;;5.90;;
82985;SDS011;72786;53.546;9.910;2024-01-11T07:06:06;23.08;;;5.28;;
82985;SDS011;72786;53.546;9.910;2024-01-11T07:08:33;20.23;;;5.13;;
82985;SDS011;72786;53.546;9.910;2024-01-11T07:11:01;20.30;;;4.65;;
82985;SDS011;72786;53.546;9.910;2024-01-11T07:13:30;20.30;;;5.22;;
82985;SDS011;72786;53.546;9.910;2024-01-11T07:16:00;21.00;;;4.97;;
82985;SDS011;72786;53.546;9.910;2024-01-11T07:18:26;27.85;;;6.00;;
82985;SDS011;72786;53.546;9.910;2024-01-11T07:20:53;23.23;;;5.60;;
82985;SDS011;72786;53.546;9.910;2024-01-11T07:23:22;17.27;;;4.97;;
82985;SDS011;72786;53.546;9.910;2024-01-11T07:25:49;23.73;;;5.68;;
82985;SDS011;72786;53.546;9.910;2024-01-11T07:28:15;18.67;;;5.60;;
82985;SDS011;72786;53.546;9.910;2024-01-11T07:30:43;21.65;;;5.20;;
82985;SDS011;72786;53.546;9.910;2024-01-11T07:33:10;16.92;;;4.70;;
82985;SDS011;72786;53.546;9.910;2024-01-11T07:35:37;21.38;;;5.28;;
82985;SDS011;72786;53.546;9.910;2024-01-11T07:38:03;21.58;;;6.28;;
82985;SDS011;72786;53.546;9.910;2024-01-11T07:40:30;22.63;;;5.65;;
82985;SDS011;72786;53.546;9.910;2024-01-11T07:43:00;21.83;;;5.32;;
82985;SDS011;72786;53.546;9.910;2024-01-11T07:45:26;23.55;;;5.40;;
82985;SDS011;72786;53.546;9.910;2024-01-11T07:47:53;22.65;;;5.90;;
82985;SDS011;72786;53.546;9.910;2024-01-11T07:50:19;26.27;;;6.35;;
82985;SDS011;72786;53.546;9.910;2024-01-11T07:52:46;21.42;;;5.75;;
82985;SDS011;72786;53.546;9.910;2024-01-11T07:55:12;27.98;;;6.57;;
82985;SDS011;72786;53.546;9.910;2024-01-11T07:57:39;24.60;;;5.88;;
82985;SDS011;72786;53.546;9.910;2024-01-11T08:00:06;25.23;;;6.10;;
82985;SDS011;72786;53.546;9.910;2024-01-11T08:02:38;21.92;;;5.18;;
82985;SDS011;72786;53.546;9.910;2024-01-11T08:05:05;24.65;;;6.22;;
82985;SDS011;72786;53.546;9.910;2024-01-11T08:07:32;27.30;;;6.32;;
82985;SDS011;72786;53.546;9.910;2024-01-11T08:09:59;23.23;;;6.65;;
82985;SDS011;72786;53.546;9.910;2024-01-11T08:12:25;22.55;;;5.90;;
82985;SDS011;72786;53.546;9.910;2024-01-11T08:14:52;25.08;;;5.95;;
82985;SDS011;72786;53.546;9.910;2024-01-11T08:17:18;26.05;;;6.47;;
82985;SDS011;72786;53.546;9.910;2024-01-11T08:19:45;23.77;;;6.22;;
82985;SDS011;72786;53.546;9.910;2024-01-11T08:22:11;21.45;;;6.13;;
82985;SDS011;72786;53.546;9.910;2024-01-11T08:24:38;29.88;;;7.03;;
82985;SDS011;72786;53.546;9.910;2024-01-11T08:27:04;29.98;;;7.15;;
82985;SDS011;72786;53.546;9.910;2024-01-11T08:29:32;22.45;;;5.82;;
82985;SDS011;72786;53.546;9.910;2024-01-11T08:32:00;27.50;;;6.78;;
82985;SDS011;72786;53.546;9.910;2024-01-11T08:34:49;22.50;;;6.18;;
82985;SDS011;72786;53.546;9.910;2024-01-11T08:37:15;24.75;;;6.38;;
82985;SDS011;72786;53.546;9.910;2024-01-11T08:39:42;29.60;;;7.38;;
82985;SDS011;72786;53.546;9.910;2024-01-11T08:42:09;22.33;;;5.13;;
82985;SDS011;72786;53.546;9.910;2024-01-11T08:44:35;24.88;;;5.75;;
82985;SDS011;72786;53.546;9.910;2024-01-11T08:47:02;20.13;;;5.22;;
82985;SDS011;72786;53.546;9.910;2024-01-11T08:49:30;22.83;;;6.30;;
82985;SDS011;72786;53.546;9.910;2024-01-11T08:51:57;19.40;;;5.35;;
82985;SDS011;72786;53.546;9.910;2024-01-11T08:54:23;24.70;;;5.40;;
82985;SDS011;72786;53.546;9.910;2024-01-11T08:56:49;22.73;;;4.88;;
82985;SDS011;72786;53.546;9.910;2024-01-11T08:59:16;22.92;;;6.03;;
82985;SDS011;72786;53.546;9.910;2024-01-11T09:01:43;23.08;;;5.05;;
82985;SDS011;72786;53.546;9.910;2024-01-11T09:04:22;18.50;;;5.03;;
82985;SDS011;72786;53.546;9.910;2024-01-11T09:06:49;18.58;;;4.38;;
82985;SDS011;72786;53.546;9.910;2024-01-11T09:09:15;27.30;;;5.78;;
82985;SDS011;72786;53.546;9.910;2024-01-11T09:11:43;23.42;;;5.70;;
82985;SDS011;72786;53.546;9.910;2024-01-11T09:14:09;23.10;;;5.93;;
82985;SDS011;72786;53.546;9.910;2024-01-11T09:16:37;18.92;;;4.78;;
82985;SDS011;72786;53.546;9.910;2024-01-11T09:19:06;19.05;;;4.78;;
82985;SDS011;72786;53.546;9.910;2024-01-11T09:21:32;17.05;;;4.65;;
82985;SDS011;72786;53.546;9.910;2024-01-11T09:23:59;19.15;;;4.97;;
82985;SDS011;72786;53.546;9.910;2024-01-11T09:26:25;19.80;;;5.75;;
82985;SDS011;72786;53.546;9.910;2024-01-11T09:28:52;20.00;;;5.40;;
82985;SDS011;72786;53.546;9.910;2024-01-11T09:31:18;21.92;;;6.05;;
82985;SDS011;72786;53.546;9.910;2024-01-11T09:33:45;23.80;;;5.60;;
82985;SDS011;72786;53.546;9.910;2024-01-11T09:36:12;24.38;;;6.15;;
82985;SDS011;72786;53.546;9.910;2024-01-11T09:38:39;26.83;;;6.70;;
82985;SDS011;72786;53.546;9.910;2024-01-11T09:41:06;27.77;;;7.32;;
82985;SDS011;72786;53.546;9.910;2024-01-11T09:43:37;28.88;;;7.88;;
82985;SDS011;72786;53.546;9.910;2024-01-11T09:46:04;28.88;;;7.85;;
82985;SDS011;72786;53.546;9.910;2024-01-11T09:48:32;31.10;;;7.90;;
82985;SDS011;72786;53.546;9.910;2024-01-11T09:51:03;23.88;;;7.13;;
82985;SDS011;72786;53.546;9.910;2024-01-11T09:53:31;33.78;;;8.55;;
82985;SDS011;72786;53.546;9.910;2024-01-11T09:55:59;29.88;;;8.65;;
82985;SDS011;72786;53.546;9.910;2024-01-11T09:58:26;26.30;;;8.07;;
82985;SDS011;72786;53.546;9.910;2024-01-11T10:00:53;33.10;;;8.45;;
82985;SDS011;72786;53.546;9.910;2024-01-11T10:03:25;31.25;;;8.68;;
82985;SDS011;72786;53.546;9.910;2024-01-11T10:05:54;31.27;;;8.52;;
82985;SDS011;72786;53.546;9.910;2024-01-11T10:08:24;28.60;;;8.50;;
82985;SDS011;72786;53.546;9.910;2024-01-11T10:10:52;28.88;;;8.55;;
82985;SDS011;72786;53.546;9.910;2024-01-11T10:13:19;34.35;;;9.82;;
82985;SDS011;72786;53.546;9.910;2024-01-11T10:15:53;34.08;;;9.85;;
82985;SDS011;72786;53.546;9.910;2024-01-11T10:18:31;35.22;;;10.15;;
82985;SDS011;72786;53.546;9.910;2024-01-11T10:20:58;34.53;;;9.35;;
82985;SDS011;72786;53.546;9.910;2024-01-11T10:23:25;32.80;;;8.77;;
82985;SDS011;72786;53.546;9.910;2024-01-11T10:25:51;31.92;;;8.95;;
82985;SDS011;72786;53.546;9.910;2024-01-11T10:28:18;34.28;;;9.93;;
82985;SDS011;72786;53.546;9.910;2024-01-11T10:30:47;34.15;;;9.93;;
82985;SDS011;72786;53.546;9.910;2024-01-11T10:33:14;30.02;;;9.00;;
82985;SDS011;72786;53.546;9.910;2024-01-11T10:35:41;33.05;;;9.38;;
82985;SDS011;72786;53.546;9.910;2024-01-11T10:38:09;33.10;;;9.50;;
82985;SDS011;72786;53.546;9.910;2024-01-11T10:40:36;35.85;;;10.30;;
82985;SDS011;72786;53.546;9.910;2024-01-11T10:43:03;34.47;;;10.55;;
82985;SDS011;72786;53.546;9.910;2024-01-11T10:45:37;35.97;;;10.38;;
82985;SDS011;72786;53.546;9.910;2024-01-11T10:48:12;33.33;;;10.25;;
82985;SDS011;72786;53.546;9.910;2024-01-11T10:50:44;41.40;;;11.40;;
82985;SDS011;72786;53.546;9.910;2024-01-11T10:55:59;35.22;;;9.93;;
82985;SDS011;72786;53.546;9.910;2024-01-11T10:58:26;46.22;;;11.05;;
82985;SDS011;72786;53.546;9.910;2024-01-11T11:00:54;37.47;;;11.18;;
82985;SDS011;72786;53.546;9.910;2024-01-11T11:03:21;40.80;;;10.30;;
82985;SDS011;72786;53.546;9.910;2024-01-11T11:05:50;38.92;;;11.20;;
82985;SDS011;72786;53.546;9.910;2024-01-11T11:08:19;39.50;;;11.10;;
82985;SDS011;72786;53.546;9.910;2024-01-11T11:10:46;43.55;;;10.68;;
82985;SDS011;72786;53.546;9.910;2024-01-11T11:13:14;40.25;;;11.02;;
82985;SDS011;72786;53.546;9.910;2024-01-11T11:15:45;43.40;;;11.48;;
82985;SDS011;72786;53.546;9.910;2024-01-11T11:18:12;36.03;;;10.65;;
82985;SDS011;72786;53.546;9.910;2024-01-11T11:20:40;37.33;;;11.07;;
82985;SDS011;72786;53.546;9.910;2024-01-11T11:23:10;36.70;;;10.32;;
82985;SDS011;72786;53.546;9.910;2024-01-11T11:25:41;39.92;;;10.18;;
82985;SDS011;72786;53.546;9.910;2024-01-11T11:28:08;35.28;;;10.93;;
82985;SDS011;72786;53.546;9.910;2024-01-11T11:30:38;37.10;;;11.18;;
82985;SDS011;72786;53.546;9.910;2024-01-11T11:33:09;35.38;;;11.55;;
82985;SDS011;72786;53.546;9.910;2024-01-11T11:35:46;38.53;;;10.32;;
82985;SDS011;72786;53.546;9.910;2024-01-11T11:38:17;41.53;;;12.38;;
82985;SDS011;72786;53.546;9.910;2024-01-11T11:40:56;40.88;;;11.43;;
82985;SDS011;72786;53.546;9.910;2024-01-11T11:43:26;33.47;;;10.05;;
82985;SDS011;72786;53.546;9.910;2024-01-11T11:45:53;40.80;;;12.60;;
82985;SDS011;72786;53.546;9.910;2024-01-11T11:51:07;36.53;;;10.68;;
82985;SDS011;72786;53.546;9.910;2024-01-11T11:56:06;39.53;;;10.80;;
82985;SDS011;72786;53.546;9.910;2024-01-11T11:58:36;33.83;;;11.23;;
82985;SDS011;72786;53.546;9.910;2024-01-11T12:01:03;39.25;;;11.02;;
82985;SDS011;72786;53.546;9.910;2024-01-11T12:03:34;41.78;;;11.30;;
82985;SDS011;72786;53.546;9.910;2024-01-11T12:06:05;42.78;;;11.65;;
82985;SDS011;72786;53.546;9.910;2024-01-11T12:08:34;36.47;;;11.00;;
82985;SDS011;72786;53.546;9.910;2024-01-11T12:11:02;41.75;;;11.60;;
82985;SDS011;72786;53.546;9.910;2024-01-11T12:13:29;40.45;;;11.85;;
82985;SDS011;72786;53.546;9.910;2024-01-11T12:15:57;41.72;;;12.05;;
82985;SDS011;72786;53.546;9.910;2024-01-11T12:18:23;42.22;;;10.65;;
82985;SDS011;72786;53.546;9.910;2024-01-11T12:20:50;44.38;;;11.55;;
82985;SDS011;72786;53.546;9.910;2024-01-11T12:23:19;37.60;;;10.68;;
82985;SDS011;72786;53.546;9.910;2024-01-11T12:25:46;42.00;;;11.93;;
82985;SDS011;72786;53.546;9.910;2024-01-11T12:28:13;39.30;;;11.27;;
82985;SDS011;72786;53.546;9.910;2024-01-11T12:30:40;40.78;;;11.38;;
82985;SDS011;72786;53.546;9.910;2024-01-11T12:33:07;41.28;;;12.13;;
82985;SDS011;72786;53.546;9.910;2024-01-11T12:35:34;39.03;;;12.38;;
82985;SDS011;72786;53.546;9.910;2024-01-11T12:38:03;42.03;;;11.68;;
82985;SDS011;72786;53.546;9.910;2024-01-11T12:40:36;41.03;;;11.48;;
82985;SDS011;72786;53.546;9.910;2024-01-11T12:43:06;40.58;;;11.45;;
82985;SDS011;72786;53.546;9.910;2024-01-11T12:45:34;45.40;;;12.88;;
82985;SDS011;72786;53.546;9.910;2024-01-11T12:48:02;43.28;;;11.05;;
82985;SDS011;72786;53.546;9.910;2024-01-11T12:50:30;42.22;;;11.73;;
82985;SDS011;72786;53.546;9.910;2024-01-11T12:53:04;43.75;;;11.20;;
82985;SDS011;72786;53.546;9.910;2024-01-11T12:55:31;43.10;;;11.70;;
82985;SDS011;72786;53.546;9.910;2024-01-11T12:58:13;44.38;;;12.10;;
82985;SDS011;72786;53.546;9.910;2024-01-11T13:00:45;44.28;;;11.15;;
82985;SDS011;72786;53.546;9.910;2024-01-11T13:03:12;42.78;;;11.60;;
82985;SDS011;72786;53.546;9.910;2024-01-11T13:05:39;42.40;;;11.98;;
82985;SDS011;72786;53.546;9.910;2024-01-11T13:08:08;39.33;;;11.73;;
82985;SDS011;72786;53.546;9.910;2024-01-11T13:10:35;40.38;;;12.02;;
82985;SDS011;72786;53.546;9.910;2024-01-11T13:13:03;42.80;;;12.18;;
82985;SDS011;72786;53.546;9.910;2024-01-11T13:15:35;38.85;;;11.07;;
82985;SDS011;72786;53.546;9.910;2024-01-11T13:18:02;43.47;;;11.80;;
82985;SDS011;72786;53.546;9.910;2024-01-11T13:20:29;41.28;;;12.27;;
82985;SDS011;72786;53.546;9.910;2024-01-11T13:25:43;38.58;;;11.15;;
82985;SDS011;72786;53.546;9.910;2024-01-11T13:28:10;43.90;;;12.13;;
82985;SDS011;72786;53.546;9.910;2024-01-11T13:30:38;43.28;;;12.82;;
82985;SDS011;72786;53.546;9.910;2024-01-11T13:33:09;41.58;;;12.90;;
82985;SDS011;72786;53.546;9.910;2024-01-11T13:35:40;43.55;;;10.55;;
82985;SDS011;72786;53.546;9.910;2024-01-11T13:38:09;42.28;;;12.77;;
82985;SDS011;72786;53.546;9.910;2024-01-11T13:40:36;38.80;;;11.85;;
82985;SDS011;72786;53.546;9.910;2024-01-11T13:43:02;37.80;;;10.68;;
82985;SDS011;72786;53.546;9.910;2024-01-11T13:45:29;41.28;;;11.85;;
82985;SDS011;72786;53.546;9.910;2024-01-11T13:47:56;42.08;;;11.95;;
82985;SDS011;72786;53.546;9.910;2024-01-11T13:50:24;38.33;;;10.77;;
82985;SDS011;72786;53.546;9.910;2024-01-11T13:52:51;35.90;;;10.50;;
82985;SDS011;72786;53.546;9.910;2024-01-11T13:55:18;39.78;;;11.55;;
82985;SDS011;72786;53.546;9.910;2024-01-11T13:57:48;41.05;;;11.05;;
82985;SDS011;72786;53.546;9.910;2024-01-11T14:00:16;41.80;;;11.27;;
82985;SDS011;72786;53.546;9.910;2024-01-11T14:02:47;40.53;;;11.57;;
82985;SDS011;72786;53.546;9.910;2024-01-11T14:05:14;35.78;;;9.45;;
82985;SDS011;72786;53.546;9.910;2024-01-11T14:07:44;35.72;;;10.63;;
82985;SDS011;72786;53.546;9.910;2024-01-11T14:10:11;36.92;;;10.40;;
82985;SDS011;72786;53.546;9.910;2024-01-11T14:12:39;36.40;;;10.15;;
82985;SDS011;72786;53.546;9.910;2024-01-11T14:15:06;39.03;;;11.57;;
82985;SDS011;72786;53.546;9.910;2024-01-11T14:17:38;39.17;;;11.57;;
82985;SDS011;72786;53.546;9.910;2024-01-11T14:20:06;40.38;;;11.25;;
82985;SDS011;72786;53.546;9.910;2024-01-11T14:22:39;40.40;;;12.35;;
82985;SDS011;72786;53.546;9.910;2024-01-11T14:25:06;39.35;;;10.40;;
82985;SDS011;72786;53.546;9.910;2024-01-11T14:27:34;37.25;;;10.15;;
82985;SDS011;72786;53.546;9.910;2024-01-11T14:30:00;36.35;;;10.20;;
82985;SDS011;72786;53.546;9.910;2024-01-11T14:32:27;41.83;;;11.07;;
82985;SDS011;72786;53.546;9.910;2024-01-11T14:35:02;38.35;;;9.90;;
82985;SDS011;72786;53.546;9.910;2024-01-11T14:37:31;36.60;;;10.98;;
82985;SDS011;72786;53.546;9.910;2024-01-11T14:39:58;35.65;;;11.48;;
82985;SDS011;72786;53.546;9.910;2024-01-11T14:42:25;39.67;;;11.32;;
82985;SDS011;72786;53.546;9.910;2024-01-11T14:44:52;37.25;;;12.02;;